Terminal Aerodrome Forecast
Issued by NWS Mt. Holly, NJ

Home | Current Version | Previous Version | Text Only | Print | Product List | Glossary On
Versions: 1 2 3 4 5 6 7 8 9 10 11 12 13 14 15 16 17 18 19
000
FTUS41 KPHI 281200 AAA
TAFACY
TAF AMD
KACY 281229Z 2812/2912 23010KT P6SM FEW120
     FM281500 26016G25KT P6SM BKN040
     FM290000 29012KT P6SM SCT200
     FM290700 29006KT P6SM SCT200=

USA.gov is the U.S. government's official web portal to all federal, state and local government web resources and services.